sensor_id;sensor_type;location;lat;lon;timestamp;P1;durP1;ratioP1;P2;durP2;ratioP2
4569;SDS011;2297;51.442;6.996;2023-12-20T00:00:20;23.60;;;12.88;;
4569;SDS011;2297;51.442;6.996;2023-12-20T00:02:46;23.92;;;12.63;;
4569;SDS011;2297;51.442;6.996;2023-12-20T00:05:13;25.55;;;11.73;;
4569;SDS011;2297;51.442;6.996;2023-12-20T00:07:40;24.42;;;11.80;;
4569;SDS011;2297;51.442;6.996;2023-12-20T00:10:08;24.58;;;11.75;;
4569;SDS011;2297;51.442;6.996;2023-12-20T00:12:37;30.75;;;11.85;;
4569;SDS011;2297;51.442;6.996;2023-12-20T00:15:05;23.05;;;11.43;;
4569;SDS011;2297;51.442;6.996;2023-12-20T00:17:32;29.30;;;11.98;;
4569;SDS011;2297;51.442;6.996;2023-12-20T00:19:58;22.10;;;11.40;;
4569;SDS011;2297;51.442;6.996;2023-12-20T00:22:25;20.15;;;11.05;;
4569;SDS011;2297;51.442;6.996;2023-12-20T00:24:52;20.35;;;9.98;;
4569;SDS011;2297;51.442;6.996;2023-12-20T00:27:20;18.13;;;9.60;;
4569;SDS011;2297;51.442;6.996;2023-12-20T00:29:46;18.85;;;9.15;;
4569;SDS011;2297;51.442;6.996;2023-12-20T00:32:15;21.83;;;9.80;;
4569;SDS011;2297;51.442;6.996;2023-12-20T00:34:42;16.58;;;8.57;;
4569;SDS011;2297;51.442;6.996;2023-12-20T00:37:09;18.20;;;9.75;;
4569;SDS011;2297;51.442;6.996;2023-12-20T00:39:35;19.98;;;8.70;;
4569;SDS011;2297;51.442;6.996;2023-12-20T00:42:02;23.60;;;9.93;;
4569;SDS011;2297;51.442;6.996;2023-12-20T00:44:30;16.50;;;8.93;;
4569;SDS011;2297;51.442;6.996;2023-12-20T00:46:57;18.70;;;8.80;;
4569;SDS011;2297;51.442;6.996;2023-12-20T00:49:24;19.55;;;8.70;;
4569;SDS011;2297;51.442;6.996;2023-12-20T00:51:50;19.17;;;7.28;;
4569;SDS011;2297;51.442;6.996;2023-12-20T00:54:17;24.27;;;9.52;;
4569;SDS011;2297;51.442;6.996;2023-12-20T00:56:44;16.40;;;8.25;;
4569;SDS011;2297;51.442;6.996;2023-12-20T00:59:11;15.73;;;7.70;;
4569;SDS011;2297;51.442;6.996;2023-12-20T01:01:39;19.88;;;7.97;;
4569;SDS011;2297;51.442;6.996;2023-12-20T01:04:05;17.10;;;8.20;;
4569;SDS011;2297;51.442;6.996;2023-12-20T01:06:32;19.52;;;7.45;;
4569;SDS011;2297;51.442;6.996;2023-12-20T01:08:59;14.77;;;7.07;;
4569;SDS011;2297;51.442;6.996;2023-12-20T01:11:25;19.17;;;8.18;;
4569;SDS011;2297;51.442;6.996;2023-12-20T01:13:52;23.58;;;7.35;;
4569;SDS011;2297;51.442;6.996;2023-12-20T01:16:18;15.48;;;7.88;;
4569;SDS011;2297;51.442;6.996;2023-12-20T01:18:47;18.10;;;8.60;;
4569;SDS011;2297;51.442;6.996;2023-12-20T01:21:14;21.02;;;8.63;;
4569;SDS011;2297;51.442;6.996;2023-12-20T01:23:41;18.38;;;7.65;;
4569;SDS011;2297;51.442;6.996;2023-12-20T01:26:07;16.30;;;6.90;;
4569;SDS011;2297;51.442;6.996;2023-12-20T01:28:34;22.60;;;9.05;;
4569;SDS011;2297;51.442;6.996;2023-12-20T01:31:00;13.55;;;6.78;;
4569;SDS011;2297;51.442;6.996;2023-12-20T01:33:27;24.05;;;8.25;;
4569;SDS011;2297;51.442;6.996;2023-12-20T01:35:55;18.42;;;7.05;;
4569;SDS011;2297;51.442;6.996;2023-12-20T01:38:22;20.23;;;7.40;;
4569;SDS011;2297;51.442;6.996;2023-12-20T01:40:48;14.10;;;6.35;;
4569;SDS011;2297;51.442;6.996;2023-12-20T01:43:15;13.80;;;6.57;;
4569;SDS011;2297;51.442;6.996;2023-12-20T01:45:41;16.75;;;7.05;;
4569;SDS011;2297;51.442;6.996;2023-12-20T01:48:08;16.20;;;6.88;;
4569;SDS011;2297;51.442;6.996;2023-12-20T01:50:37;17.50;;;7.32;;
4569;SDS011;2297;51.442;6.996;2023-12-20T01:53:05;19.00;;;7.78;;
4569;SDS011;2297;51.442;6.996;2023-12-20T01:55:34;24.27;;;8.25;;
4569;SDS011;2297;51.442;6.996;2023-12-20T01:58:04;19.63;;;7.47;;
4569;SDS011;2297;51.442;6.996;2023-12-20T02:00:32;15.70;;;7.55;;
4569;SDS011;2297;51.442;6.996;2023-12-20T02:03:00;14.20;;;6.45;;
4569;SDS011;2297;51.442;6.996;2023-12-20T02:05:28;18.88;;;7.25;;
4569;SDS011;2297;51.442;6.996;2023-12-20T02:07:55;15.25;;;6.88;;
4569;SDS011;2297;51.442;6.996;2023-12-20T02:10:24;16.33;;;6.85;;
4569;SDS011;2297;51.442;6.996;2023-12-20T02:12:51;15.85;;;6.05;;
4569;SDS011;2297;51.442;6.996;2023-12-20T02:15:18;18.17;;;7.15;;
4569;SDS011;2297;51.442;6.996;2023-12-20T02:17:45;21.38;;;6.15;;
4569;SDS011;2297;51.442;6.996;2023-12-20T02:20:13;17.73;;;6.00;;
4569;SDS011;2297;51.442;6.996;2023-12-20T02:22:41;16.48;;;5.97;;
4569;SDS011;2297;51.442;6.996;2023-12-20T02:25:08;17.55;;;6.43;;
4569;SDS011;2297;51.442;6.996;2023-12-20T02:27:34;22.92;;;5.82;;
4569;SDS011;2297;51.442;6.996;2023-12-20T02:30:01;15.07;;;5.65;;
4569;SDS011;2297;51.442;6.996;2023-12-20T02:32:29;12.85;;;6.15;;
4569;SDS011;2297;51.442;6.996;2023-12-20T02:34:56;14.05;;;6.55;;
4569;SDS011;2297;51.442;6.996;2023-12-20T02:37:22;16.50;;;6.10;;
4569;SDS011;2297;51.442;6.996;2023-12-20T02:39:50;19.95;;;7.38;;
4569;SDS011;2297;51.442;6.996;2023-12-20T02:42:17;19.63;;;6.05;;
4569;SDS011;2297;51.442;6.996;2023-12-20T02:44:44;17.50;;;6.47;;
4569;SDS011;2297;51.442;6.996;2023-12-20T02:47:11;21.67;;;6.95;;
4569;SDS011;2297;51.442;6.996;2023-12-20T02:49:38;31.05;;;8.55;;
4569;SDS011;2297;51.442;6.996;2023-12-20T02:52:04;13.55;;;6.35;;
4569;SDS011;2297;51.442;6.996;2023-12-20T02:54:31;20.40;;;6.40;;
4569;SDS011;2297;51.442;6.996;2023-12-20T02:56:59;15.80;;;6.57;;
4569;SDS011;2297;51.442;6.996;2023-12-20T02:59:26;14.23;;;6.35;;
4569;SDS011;2297;51.442;6.996;2023-12-20T03:01:52;18.98;;;5.90;;
4569;SDS011;2297;51.442;6.996;2023-12-20T03:04:19;15.13;;;6.50;;
4569;SDS011;2297;51.442;6.996;2023-12-20T03:06:46;19.75;;;5.72;;
4569;SDS011;2297;51.442;6.996;2023-12-20T03:09:12;22.55;;;6.13;;
4569;SDS011;2297;51.442;6.996;2023-12-20T03:11:39;22.40;;;6.53;;
4569;SDS011;2297;51.442;6.996;2023-12-20T03:14:07;14.38;;;6.07;;
4569;SDS011;2297;51.442;6.996;2023-12-20T03:16:34;12.75;;;5.18;;
4569;SDS011;2297;51.442;6.996;2023-12-20T03:19:00;16.55;;;5.68;;
4569;SDS011;2297;51.442;6.996;2023-12-20T03:21:27;17.48;;;5.60;;
4569;SDS011;2297;51.442;6.996;2023-12-20T03:23:54;14.82;;;5.55;;
4569;SDS011;2297;51.442;6.996;2023-12-20T03:26:20;16.95;;;5.38;;
4569;SDS011;2297;51.442;6.996;2023-12-20T03:28:48;13.48;;;5.03;;
4569;SDS011;2297;51.442;6.996;2023-12-20T03:31:16;18.38;;;5.38;;
4569;SDS011;2297;51.442;6.996;2023-12-20T03:33:42;17.48;;;5.95;;
4569;SDS011;2297;51.442;6.996;2023-12-20T03:36:09;20.58;;;5.97;;
4569;SDS011;2297;51.442;6.996;2023-12-20T03:38:36;17.55;;;5.93;;
4569;SDS011;2297;51.442;6.996;2023-12-20T03:41:02;14.70;;;4.78;;
4569;SDS011;2297;51.442;6.996;2023-12-20T03:43:30;13.68;;;4.93;;
4569;SDS011;2297;51.442;6.996;2023-12-20T03:45:57;16.40;;;5.15;;
4569;SDS011;2297;51.442;6.996;2023-12-20T03:48:26;14.80;;;4.13;;
4569;SDS011;2297;51.442;6.996;2023-12-20T03:50:53;11.82;;;3.67;;
4569;SDS011;2297;51.442;6.996;2023-12-20T03:53:19;19.65;;;3.97;;
4569;SDS011;2297;51.442;6.996;2023-12-20T03:55:46;13.55;;;3.90;;
4569;SDS011;2297;51.442;6.996;2023-12-20T03:58:13;14.23;;;3.88;;
4569;SDS011;2297;51.442;6.996;2023-12-20T04:00:39;16.95;;;4.10;;
4569;SDS011;2297;51.442;6.996;2023-12-20T04:03:07;16.63;;;4.40;;
4569;SDS011;2297;51.442;6.996;2023-12-20T04:05:41;22.42;;;3.83;;
4569;SDS011;2297;51.442;6.996;2023-12-20T04:08:07;11.52;;;3.50;;
4569;SDS011;2297;51.442;6.996;2023-12-20T04:10:36;14.25;;;4.65;;
4569;SDS011;2297;51.442;6.996;2023-12-20T04:13:03;13.10;;;3.63;;
4569;SDS011;2297;51.442;6.996;2023-12-20T04:15:33;19.20;;;4.53;;
4569;SDS011;2297;51.442;6.996;2023-12-20T04:17:59;16.77;;;3.70;;
4569;SDS011;2297;51.442;6.996;2023-12-20T04:20:26;16.20;;;3.88;;
4569;SDS011;2297;51.442;6.996;2023-12-20T04:22:54;16.63;;;4.20;;
4569;SDS011;2297;51.442;6.996;2023-12-20T04:25:20;14.77;;;3.70;;
4569;SDS011;2297;51.442;6.996;2023-12-20T04:27:47;12.07;;;3.70;;
4569;SDS011;2297;51.442;6.996;2023-12-20T04:30:14;22.27;;;4.35;;
4569;SDS011;2297;51.442;6.996;2023-12-20T04:32:40;16.48;;;4.57;;
4569;SDS011;2297;51.442;6.996;2023-12-20T04:35:07;14.05;;;4.13;;
4569;SDS011;2297;51.442;6.996;2023-12-20T04:37:34;24.05;;;5.25;;
4569;SDS011;2297;51.442;6.996;2023-12-20T04:40:02;15.63;;;4.20;;
4569;SDS011;2297;51.442;6.996;2023-12-20T04:42:30;16.80;;;4.60;;
4569;SDS011;2297;51.442;6.996;2023-12-20T04:44:57;13.88;;;4.43;;
4569;SDS011;2297;51.442;6.996;2023-12-20T04:47:23;20.23;;;4.90;;
4569;SDS011;2297;51.442;6.996;2023-12-20T04:49:50;15.95;;;4.93;;
4569;SDS011;2297;51.442;6.996;2023-12-20T04:52:17;14.65;;;5.18;;
4569;SDS011;2297;51.442;6.996;2023-12-20T04:54:43;20.10;;;6.70;;
4569;SDS011;2297;51.442;6.996;2023-12-20T04:57:12;13.27;;;4.68;;
4569;SDS011;2297;51.442;6.996;2023-12-20T04:59:38;17.23;;;5.32;;
4569;SDS011;2297;51.442;6.996;2023-12-20T05:02:06;26.52;;;4.97;;
4569;SDS011;2297;51.442;6.996;2023-12-20T05:04:32;16.75;;;5.88;;
4569;SDS011;2297;51.442;6.996;2023-12-20T05:06:59;29.50;;;5.53;;
4569;SDS011;2297;51.442;6.996;2023-12-20T05:09:26;20.83;;;5.65;;
4569;SDS011;2297;51.442;6.996;2023-12-20T05:11:52;13.52;;;5.30;;
4569;SDS011;2297;51.442;6.996;2023-12-20T05:14:21;17.35;;;4.80;;
4569;SDS011;2297;51.442;6.996;2023-12-20T05:16:47;21.95;;;6.05;;
4569;SDS011;2297;51.442;6.996;2023-12-20T05:19:17;18.75;;;5.45;;
4569;SDS011;2297;51.442;6.996;2023-12-20T05:21:43;21.05;;;5.97;;
4569;SDS011;2297;51.442;6.996;2023-12-20T05:24:10;16.38;;;5.18;;
4569;SDS011;2297;51.442;6.996;2023-12-20T05:26:37;21.77;;;5.72;;
4569;SDS011;2297;51.442;6.996;2023-12-20T05:29:03;21.63;;;5.90;;
4569;SDS011;2297;51.442;6.996;2023-12-20T05:31:32;21.77;;;5.32;;
4569;SDS011;2297;51.442;6.996;2023-12-20T05:33:58;16.80;;;5.15;;
4569;SDS011;2297;51.442;6.996;2023-12-20T05:36:25;21.35;;;6.03;;
4569;SDS011;2297;51.442;6.996;2023-12-20T05:38:52;17.42;;;5.82;;
4569;SDS011;2297;51.442;6.996;2023-12-20T05:41:18;18.88;;;6.13;;
4569;SDS011;2297;51.442;6.996;2023-12-20T05:43:46;21.52;;;6.85;;
4569;SDS011;2297;51.442;6.996;2023-12-20T05:46:13;21.75;;;6.80;;
4569;SDS011;2297;51.442;6.996;2023-12-20T05:48:41;21.25;;;6.55;;
4569;SDS011;2297;51.442;6.996;2023-12-20T05:51:08;18.13;;;6.40;;
4569;SDS011;2297;51.442;6.996;2023-12-20T05:53:37;22.15;;;6.18;;
4569;SDS011;2297;51.442;6.996;2023-12-20T05:56:04;15.70;;;6.97;;
4569;SDS011;2297;51.442;6.996;2023-12-20T05:58:31;20.73;;;6.60;;
4569;SDS011;2297;51.442;6.996;2023-12-20T06:00:58;23.20;;;6.70;;
4569;SDS011;2297;51.442;6.996;2023-12-20T06:03:25;18.27;;;6.22;;
4569;SDS011;2297;51.442;6.996;2023-12-20T06:05:53;19.80;;;7.03;;
4569;SDS011;2297;51.442;6.996;2023-12-20T06:08:19;26.25;;;7.78;;
4569;SDS011;2297;51.442;6.996;2023-12-20T06:10:46;22.00;;;6.97;;
4569;SDS011;2297;51.442;6.996;2023-12-20T06:13:13;22.38;;;7.15;;
4569;SDS011;2297;51.442;6.996;2023-12-20T06:18:40;20.23;;;5.90;;
4569;SDS011;2297;51.442;6.996;2023-12-20T06:21:08;17.35;;;5.90;;
4569;SDS011;2297;51.442;6.996;2023-12-20T06:23:38;15.75;;;5.88;;
4569;SDS011;2297;51.442;6.996;2023-12-20T06:26:04;27.75;;;7.03;;
4569;SDS011;2297;51.442;6.996;2023-12-20T06:28:31;23.88;;;6.35;;
4569;SDS011;2297;51.442;6.996;2023-12-20T06:30:58;20.80;;;6.53;;
4569;SDS011;2297;51.442;6.996;2023-12-20T06:33:25;21.33;;;7.38;;
4569;SDS011;2297;51.442;6.996;2023-12-20T06:35:52;23.90;;;7.03;;
4569;SDS011;2297;51.442;6.996;2023-12-20T06:38:20;22.88;;;6.63;;
4569;SDS011;2297;51.442;6.996;2023-12-20T06:40:47;17.45;;;6.63;;
4569;SDS011;2297;51.442;6.996;2023-12-20T06:43:13;27.70;;;7.05;;
4569;SDS011;2297;51.442;6.996;2023-12-20T06:45:40;19.08;;;6.82;;
4569;SDS011;2297;51.442;6.996;2023-12-20T06:48:16;18.48;;;6.70;;
4569;SDS011;2297;51.442;6.996;2023-12-20T06:50:43;19.75;;;7.03;;
4569;SDS011;2297;51.442;6.996;2023-12-20T06:53:09;18.10;;;7.03;;
4569;SDS011;2297;51.442;6.996;2023-12-20T06:55:38;23.40;;;6.15;;
4569;SDS011;2297;51.442;6.996;2023-12-20T06:58:04;20.98;;;6.38;;
4569;SDS011;2297;51.442;6.996;2023-12-20T07:00:32;22.63;;;7.32;;
4569;SDS011;2297;51.442;6.996;2023-12-20T07:02:59;20.08;;;6.88;;
4569;SDS011;2297;51.442;6.996;2023-12-20T07:05:26;22.13;;;6.68;;
4569;SDS011;2297;51.442;6.996;2023-12-20T07:07:53;16.08;;;5.63;;
4569;SDS011;2297;51.442;6.996;2023-12-20T07:10:19;20.15;;;6.13;;
4569;SDS011;2297;51.442;6.996;2023-12-20T07:12:48;21.33;;;6.45;;
4569;SDS011;2297;51.442;6.996;2023-12-20T07:15:16;15.13;;;5.25;;
4569;SDS011;2297;51.442;6.996;2023-12-20T07:17:43;27.05;;;8.80;;
4569;SDS011;2297;51.442;6.996;2023-12-20T07:20:10;18.13;;;5.82;;
4569;SDS011;2297;51.442;6.996;2023-12-20T07:22:37;21.30;;;6.03;;
4569;SDS011;2297;51.442;6.996;2023-12-20T07:25:04;24.17;;;7.00;;
4569;SDS011;2297;51.442;6.996;2023-12-20T07:27:32;22.23;;;6.30;;
4569;SDS011;2297;51.442;6.996;2023-12-20T07:30:00;17.83;;;5.95;;
4569;SDS011;2297;51.442;6.996;2023-12-20T07:32:26;20.33;;;6.15;;
4569;SDS011;2297;51.442;6.996;2023-12-20T07:34:53;16.60;;;6.13;;
4569;SDS011;2297;51.442;6.996;2023-12-20T07:37:20;21.23;;;5.78;;
4569;SDS011;2297;51.442;6.996;2023-12-20T07:39:47;17.20;;;6.10;;
4569;SDS011;2297;51.442;6.996;2023-12-20T07:42:13;17.00;;;6.38;;
4569;SDS011;2297;51.442;6.996;2023-12-20T07:44:40;25.02;;;7.20;;
4569;SDS011;2297;51.442;6.996;2023-12-20T07:47:08;21.48;;;6.57;;
4569;SDS011;2297;51.442;6.996;2023-12-20T07:49:37;21.17;;;7.13;;
4569;SDS011;2297;51.442;6.996;2023-12-20T07:52:04;20.45;;;6.35;;
4569;SDS011;2297;51.442;6.996;2023-12-20T07:54:33;15.40;;;5.80;;
4569;SDS011;2297;51.442;6.996;2023-12-20T07:57:00;12.98;;;5.47;;
4569;SDS011;2297;51.442;6.996;2023-12-20T07:59:26;21.02;;;5.80;;
4569;SDS011;2297;51.442;6.996;2023-12-20T08:01:53;18.40;;;5.82;;
4569;SDS011;2297;51.442;6.996;2023-12-20T08:04:21;22.60;;;5.80;;
4569;SDS011;2297;51.442;6.996;2023-12-20T08:06:48;18.00;;;6.32;;
4569;SDS011;2297;51.442;6.996;2023-12-20T08:09:15;19.95;;;5.85;;
4569;SDS011;2297;51.442;6.996;2023-12-20T08:11:44;18.67;;;5.85;;
4569;SDS011;2297;51.442;6.996;2023-12-20T08:14:11;23.25;;;6.10;;
4569;SDS011;2297;51.442;6.996;2023-12-20T08:16:38;21.55;;;6.70;;
4569;SDS011;2297;51.442;6.996;2023-12-20T08:19:04;16.45;;;5.88;;
4569;SDS011;2297;51.442;6.996;2023-12-20T08:21:33;16.70;;;6.25;;
4569;SDS011;2297;51.442;6.996;2023-12-20T08:23:59;25.35;;;6.90;;
4569;SDS011;2297;51.442;6.996;2023-12-20T08:26:26;12.85;;;5.85;;
4569;SDS011;2297;51.442;6.996;2023-12-20T08:28:53;23.95;;;6.78;;
4569;SDS011;2297;51.442;6.996;2023-12-20T08:31:20;19.67;;;5.93;;
4569;SDS011;2297;51.442;6.996;2023-12-20T08:33:47;19.35;;;6.32;;
4569;SDS011;2297;51.442;6.996;2023-12-20T08:36:14;23.98;;;6.57;;
4569;SDS011;2297;51.442;6.996;2023-12-20T08:38:44;15.73;;;5.75;;
4569;SDS011;2297;51.442;6.996;2023-12-20T08:41:10;17.20;;;5.95;;
4569;SDS011;2297;51.442;6.996;2023-12-20T08:43:37;17.35;;;5.43;;
4569;SDS011;2297;51.442;6.996;2023-12-20T08:46:05;14.70;;;5.18;;
4569;SDS011;2297;51.442;6.996;2023-12-20T08:48:31;18.83;;;6.28;;
4569;SDS011;2297;51.442;6.996;2023-12-20T08:50:58;19.10;;;5.80;;
4569;SDS011;2297;51.442;6.996;2023-12-20T08:53:25;16.15;;;5.75;;
4569;SDS011;2297;51.442;6.996;2023-12-20T08:55:53;16.77;;;6.38;;
4569;SDS011;2297;51.442;6.996;2023-12-20T08:58:20;18.27;;;6.10;;
4569;SDS011;2297;51.442;6.996;2023-12-20T09:00:46;14.10;;;5.30;;
4569;SDS011;2297;51.442;6.996;2023-12-20T09:03:13;15.52;;;5.20;;
4569;SDS011;2297;51.442;6.996;2023-12-20T09:05:40;22.77;;;5.28;;
4569;SDS011;2297;51.442;6.996;2023-12-20T09:08:07;17.83;;;5.30;;
4569;SDS011;2297;51.442;6.996;2023-12-20T09:10:35;17.42;;;4.97;;
4569;SDS011;2297;51.442;6.996;2023-12-20T09:13:03;22.90;;;4.65;;
4569;SDS011;2297;51.442;6.996;2023-12-20T09:15:30;18.05;;;5.40;;
4569;SDS011;2297;51.442;6.996;2023-12-20T09:17:59;15.38;;;4.90;;
4569;SDS011;2297;51.442;6.996;2023-12-20T09:20:25;19.85;;;4.65;;
4569;SDS011;2297;51.442;6.996;2023-12-20T09:22:55;17.80;;;4.57;;
4569;SDS011;2297;51.442;6.996;2023-12-20T09:25:22;21.52;;;4.75;;
4569;SDS011;2297;51.442;6.996;2023-12-20T09:27:48;12.30;;;4.55;;
4569;SDS011;2297;51.442;6.996;2023-12-20T09:30:16;21.52;;;5.38;;
4569;SDS011;2297;51.442;6.996;2023-12-20T09:32:43;19.35;;;4.50;;
4569;SDS011;2297;51.442;6.996;2023-12-20T09:35:10;15.30;;;5.03;;
4569;SDS011;2297;51.442;6.996;2023-12-20T09:37:36;19.63;;;4.65;;
4569;SDS011;2297;51.442;6.996;2023-12-20T09:40:03;16.50;;;4.65;;
4569;SDS011;2297;51.442;6.996;2023-12-20T09:42:33;12.63;;;5.18;;
4569;SDS011;2297;51.442;6.996;2023-12-20T09:45:06;18.40;;;5.35;;
4569;SDS011;2297;51.442;6.996;2023-12-20T09:47:36;12.60;;;4.50;;
4569;SDS011;2297;51.442;6.996;2023-12-20T09:50:03;15.50;;;5.07;;
4569;SDS011;2297;51.442;6.996;2023-12-20T09:52:31;13.27;;;4.85;;
4569;SDS011;2297;51.442;6.996;2023-12-20T09:54:59;12.38;;;4.28;;
4569;SDS011;2297;51.442;6.996;2023-12-20T09:57:30;24.05;;;5.45;;
4569;SDS011;2297;51.442;6.996;2023-12-20T09:59:57;17.33;;;4.50;;
4569;SDS011;2297;51.442;6.996;2023-12-20T10:02:24;17.35;;;4.70;;
4569;SDS011;2297;51.442;6.996;2023-12-20T10:04:54;18.55;;;4.88;;
4569;SDS011;2297;51.442;6.996;2023-12-20T10:07:20;18.98;;;5.97;;
4569;SDS011;2297;51.442;6.996;2023-12-20T10:09:48;20.15;;;4.95;;
4569;SDS011;2297;51.442;6.996;2023-12-20T10:12:15;22.65;;;5.30;;
4569;SDS011;2297;51.442;6.996;2023-12-20T10:14:41;17.98;;;6.05;;
4569;SDS011;2297;51.442;6.996;2023-12-20T10:17:08;18.38;;;5.53;;
4569;SDS011;2297;51.442;6.996;2023-12-20T10:19:35;15.68;;;4.63;;
4569;SDS011;2297;51.442;6.996;2023-12-20T10:22:05;12.05;;;4.50;;
4569;SDS011;2297;51.442;6.996;2023-12-20T10:24:31;29.15;;;11.02;;
4569;SDS011;2297;51.442;6.996;2023-12-20T10:27:10;18.13;;;4.32;;
4569;SDS011;2297;51.442;6.996;2023-12-20T10:29:42;21.30;;;5.78;;
4569;SDS011;2297;51.442;6.996;2023-12-20T10:32:22;16.05;;;4.80;;
4569;SDS011;2297;51.442;6.996;2023-12-20T10:34:50;20.77;;;4.85;;
4569;SDS011;2297;51.442;6.996;2023-12-20T10:37:21;14.13;;;5.50;;
4569;SDS011;2297;51.442;6.996;2023-12-20T10:39:49;21.67;;;5.95;;
4569;SDS011;2297;51.442;6.996;2023-12-20T10:42:17;21.67;;;5.97;;
4569;SDS011;2297;51.442;6.996;2023-12-20T10:44:46;16.02;;;5.72;;
4569;SDS011;2297;51.442;6.996;2023-12-20T10:47:13;14.60;;;5.43;;
4569;SDS011;2297;51.442;6.996;2023-12-20T10:49:40;21.52;;;5.47;;
4569;SDS011;2297;51.442;6.996;2023-12-20T10:52:09;18.73;;;4.88;;
4569;SDS011;2297;51.442;6.996;2023-12-20T10:54:39;19.13;;;5.43;;
4569;SDS011;2297;51.442;6.996;2023-12-20T10:57:06;24.08;;;6.10;;
4569;SDS011;2297;51.442;6.996;2023-12-20T10:59:33;13.27;;;4.88;;
4569;SDS011;2297;51.442;6.996;2023-12-20T11:02:02;14.90;;;4.60;;
4569;SDS011;2297;51.442;6.996;2023-12-20T11:04:31;17.70;;;5.13;;
4569;SDS011;2297;51.442;6.996;2023-12-20T11:07:05;16.02;;;5.10;;
4569;SDS011;2297;51.442;6.996;2023-12-20T11:09:45;14.48;;;5.00;;
4569;SDS011;2297;51.442;6.996;2023-12-20T11:12:20;16.15;;;4.95;;
4569;SDS011;2297;51.442;6.996;2023-12-20T11:14:52;21.38;;;6.22;;
4569;SDS011;2297;51.442;6.996;2023-12-20T11:17:22;15.70;;;5.00;;
4569;SDS011;2297;51.442;6.996;2023-12-20T11:20:05;28.33;;;5.80;;
4569;SDS011;2297;51.442;6.996;2023-12-20T11:22:35;17.27;;;4.65;;
4569;SDS011;2297;51.442;6.996;2023-12-20T11:25:05;15.65;;;4.85;;
4569;SDS011;2297;51.442;6.996;2023-12-20T11:27:33;17.58;;;5.20;;
4569;SDS011;2297;51.442;6.996;2023-12-20T11:30:02;16.10;;;4.90;;
4569;SDS011;2297;51.442;6.996;2023-12-20T11:32:34;17.88;;;4.82;;
4569;SDS011;2297;51.442;6.996;2023-12-20T11:35:16;21.90;;;5.68;;
4569;SDS011;2297;51.442;6.996;2023-12-20T11:37:44;17.38;;;5.32;;
4569;SDS011;2297;51.442;6.996;2023-12-20T11:40:14;15.75;;;5.28;;
4569;SDS011;2297;51.442;6.996;2023-12-20T11:46:03;19.80;;;5.55;;
4569;SDS011;2297;51.442;6.996;2023-12-20T11:48:31;17.05;;;5.30;;
4569;SDS011;2297;51.442;6.996;2023-12-20T11:50:58;13.43;;;5.10;;
4569;SDS011;2297;51.442;6.996;2023-12-20T11:53:25;17.23;;;5.47;;
4569;SDS011;2297;51.442;6.996;2023-12-20T11:55:53;13.93;;;5.22;;
4569;SDS011;2297;51.442;6.996;2023-12-20T11:58:20;18.05;;;5.93;;
4569;SDS011;2297;51.442;6.996;2023-12-20T12:00:48;17.83;;;6.18;;
4569;SDS011;2297;51.442;6.996;2023-12-20T12:03:15;21.95;;;6.43;;
4569;SDS011;2297;51.442;6.996;2023-12-20T12:05:42;16.65;;;5.80;;
4569;SDS011;2297;51.442;6.996;2023-12-20T12:08:09;12.50;;;5.40;;
4569;SDS011;2297;51.442;6.996;2023-12-20T12:10:35;22.13;;;5.88;;
4569;SDS011;2297;51.442;6.996;2023-12-20T12:13:03;23.05;;;6.50;;
4569;SDS011;2297;51.442;6.996;2023-12-20T12:15:30;23.35;;;6.85;;
4569;SDS011;2297;51.442;6.996;2023-12-20T12:17:57;14.13;;;6.80;;
4569;SDS011;2297;51.442;6.996;2023-12-20T12:20:24;18.90;;;6.55;;
4569;SDS011;2297;51.442;6.996;2023-12-20T12:22:57;13.13;;;5.60;;
4569;SDS011;2297;51.442;6.996;2023-12-20T12:25:26;13.68;;;6.43;;
4569;SDS011;2297;51.442;6.996;2023-12-20T12:27:55;21.33;;;6.88;;
4569;SDS011;2297;51.442;6.996;2023-12-20T12:30:23;18.13;;;7.50;;
4569;SDS011;2297;51.442;6.996;2023-12-20T12:32:50;23.35;;;6.55;;
4569;SDS011;2297;51.442;6.996;2023-12-20T12:35:18;20.30;;;5.97;;
4569;SDS011;2297;51.442;6.996;2023-12-20T12:37:44;16.13;;;6.75;;
4569;SDS011;2297;51.442;6.996;2023-12-20T12:40:12;23.77;;;6.90;;
4569;SDS011;2297;51.442;6.996;2023-12-20T12:42:40;17.15;;;6.30;;
4569;SDS011;2297;51.442;6.996;2023-12-20T12:45:09;21.30;;;6.05;;
4569;SDS011;2297;51.442;6.996;2023-12-20T12:47:38;20.58;;;6.43;;
4569;SDS011;2297;51.442;6.996;2023-12-20T12:50:05;25.23;;;6.32;;
4569;SDS011;2297;51.442;6.996;2023-12-20T12:52:32;14.82;;;5.82;;
4569;SDS011;2297;51.442;6.996;2023-12-20T12:55:00;18.70;;;6.38;;
4569;SDS011;2297;51.442;6.996;2023-12-20T12:57:26;19.15;;;6.22;;
4569;SDS011;2297;51.442;6.996;2023-12-20T12:59:53;21.48;;;6.93;;
4569;SDS011;2297;51.442;6.996;2023-12-20T13:02:20;22.10;;;6.35;;
4569;SDS011;2297;51.442;6.996;2023-12-20T13:04:48;16.10;;;6.22;;
4569;SDS011;2297;51.442;6.996;2023-12-20T13:07:15;19.40;;;6.85;;
4569;SDS011;2297;51.442;6.996;2023-12-20T13:09:42;19.98;;;6.25;;
4569;SDS011;2297;51.442;6.996;2023-12-20T13:15:31;17.10;;;5.80;;
4569;SDS011;2297;51.442;6.996;2023-12-20T13:17:57;14.95;;;6.78;;
4569;SDS011;2297;51.442;6.996;2023-12-20T13:20:26;20.85;;;6.70;;
4569;SDS011;2297;51.442;6.996;2023-12-20T13:22:56;16.35;;;7.40;;
4569;SDS011;2297;51.442;6.996;2023-12-20T13:25:23;19.27;;;6.85;;
4569;SDS011;2297;51.442;6.996;2023-12-20T13:27:50;16.35;;;7.22;;
4569;SDS011;2297;51.442;6.996;2023-12-20T13:30:16;13.05;;;6.40;;
4569;SDS011;2297;51.442;6.996;2023-12-20T13:32:43;19.30;;;7.47;;
4569;SDS011;2297;51.442;6.996;2023-12-20T13:35:10;21.08;;;7.75;;
4569;SDS011;2297;51.442;6.996;2023-12-20T13:37:38;15.40;;;6.95;;
4569;SDS011;2297;51.442;6.996;2023-12-20T13:40:05;15.57;;;7.20;;
4569;SDS011;2297;51.442;6.996;2023-12-20T13:42:33;18.13;;;7.07;;
4569;SDS011;2297;51.442;6.996;2023-12-20T13:45:00;15.52;;;7.35;;
4569;SDS011;2297;51.442;6.996;2023-12-20T13:47:29;20.10;;;7.70;;
4569;SDS011;2297;51.442;6.996;2023-12-20T13:49:56;15.20;;;7.43;;
4569;SDS011;2297;51.442;6.996;2023-12-20T13:52:23;18.77;;;9.05;;
4569;SDS011;2297;51.442;6.996;2023-12-20T13:54:51;18.85;;;8.55;;
4569;SDS011;2297;51.442;6.996;2023-12-20T13:57:17;21.13;;;8.48;;
4569;SDS011;2297;51.442;6.996;2023-12-20T13:59:44;18.98;;;8.85;;
4569;SDS011;2297;51.442;6.996;2023-12-20T14:02:11;15.68;;;8.23;;
4569;SDS011;2297;51.442;6.996;2023-12-20T14:04:38;17.23;;;8.55;;
4569;SDS011;2297;51.442;6.996;2023-12-20T14:07:05;17.77;;;8.13;;
4569;SDS011;2297;51.442;6.996;2023-12-20T14:09:33;22.65;;;9.48;;
4569;SDS011;2297;51.442;6.996;2023-12-20T14:12:01;21.48;;;8.77;;
4569;SDS011;2297;51.442;6.996;2023-12-20T14:14:28;18.38;;;8.15;;
4569;SDS011;2297;51.442;6.996;2023-12-20T14:16:55;23.50;;;8.27;;
4569;SDS011;2297;51.442;6.996;2023-12-20T14:19:21;16.25;;;8.48;;
4569;SDS011;2297;51.442;6.996;2023-12-20T14:21:48;18.38;;;9.48;;
4569;SDS011;2297;51.442;6.996;2023-12-20T14:24:15;15.05;;;8.20;;
4569;SDS011;2297;51.442;6.996;2023-12-20T14:26:41;17.20;;;8.82;;
4569;SDS011;2297;51.442;6.996;2023-12-20T14:29:09;19.77;;;9.60;;
4569;SDS011;2297;51.442;6.996;2023-12-20T14:31:36;26.35;;;12.18;;
4569;SDS011;2297;51.442;6.996;2023-12-20T14:34:04;24.45;;;11.20;;
4569;SDS011;2297;51.442;6.996;2023-12-20T14:36:31;26.88;;;10.75;;
4569;SDS011;2297;51.442;6.996;2023-12-20T14:38:58;23.05;;;11.02;;
4569;SDS011;2297;51.442;6.996;2023-12-20T14:41:26;18.40;;;10.13;;
4569;SDS011;2297;51.442;6.996;2023-12-20T14:43:53;22.23;;;9.57;;
4569;SDS011;2297;51.442;6.996;2023-12-20T14:46:21;24.60;;;10.23;;
4569;SDS011;2297;51.442;6.996;2023-12-20T14:48:48;23.08;;;9.82;;
4569;SDS011;2297;51.442;6.996;2023-12-20T14:51:15;20.08;;;9.82;;
4569;SDS011;2297;51.442;6.996;2023-12-20T14:53:42;17.25;;;9.68;;
4569;SDS011;2297;51.442;6.996;2023-12-20T14:56:09;24.70;;;10.35;;
4569;SDS011;2297;51.442;6.996;2023-12-20T14:58:35;17.48;;;8.77;;
4569;SDS011;2297;51.442;6.996;2023-12-20T15:01:03;17.08;;;8.00;;
4569;SDS011;2297;51.442;6.996;2023-12-20T15:03:34;21.70;;;8.52;;
4569;SDS011;2297;51.442;6.996;2023-12-20T15:06:00;21.08;;;7.53;;
4569;SDS011;2297;51.442;6.996;2023-12-20T15:08:27;27.58;;;9.50;;
4569;SDS011;2297;51.442;6.996;2023-12-20T15:10:54;19.13;;;8.93;;